Time;durP1;ratioP1;P1;durP2;ratioP2;P2;SDS_P1;SDS_P2;PMS_P1;PMS_P2;Temp;Humidity;BMP_temperature;BMP_pressure;BME280_temperature;BME280_humidity;BME280_pressure;Samples;Min_cycle;Max_cycle;Signal;HPM_P1;HPM_P2
2023/07/18 00:00:25;;;;;;;6.43;1.52;;;;;;;;;;4841226;29;98519;-82
2023/07/18 00:15:11;;;;;;;7.10;1.42;;;;;;;;;;4857934;29;99569;-82
2023/07/18 00:18:32;;;;;;;5.28;1.35;;;;;;;;;;4930655;28;99369;-81
2023/07/18 00:21:58;;;;;;;7.05;1.42;;;;;;;;;;4904807;28;128257;-82
2023/07/18 00:25:13;;;;;;;7.07;1.45;;;;;;;;;;4961792;28;99027;-82
2023/07/18 00:28:15;;;;;;;7.85;1.52;;;;;;;;;;4951027;28;99392;-82
2023/07/18 00:31:46;;;;;;;5.63;1.55;;;;;;;;;;4956836;28;128170;-82
2023/07/18 00:35:28;;;;;;;;;;;;;;;;;;;;;
2023/07/18 00:42:49;;;;;;;7.45;1.48;;;;;;;;;;4819616;29;99318;-81
2023/07/18 00:58:47;;;;;;;;;;;;;;;;;;;;;
2023/07/18 01:13:19;;;;;;;;;;;;;;;;;;;;;
2023/07/18 01:17:15;;;;;;;;;;;;;;;;;;;;;
2023/07/18 01:33:44;;;;;;;7.28;1.70;;;;;;;;;;4719946;29;98528;-82
2023/07/18 01:41:47;;;;;;;5.40;1.30;;;;;;;;;;4665737;30;98735;-82
2023/07/18 01:44:53;;;;;;;;;;;;;;;;;;;;;
2023/07/18 01:48:52;;;;;;;;;;;;;;;;;;;;;
2023/07/18 01:56:09;;;;;;;;;;;;;;;;;;;;;
2023/07/18 02:05:17;;;;;;;;;;;;;;;;;;;;;
2023/07/18 02:07:56;;;;;;;5.22;1.45;;;;;;;;;;4636740;30;99245;-82
2023/07/18 02:14:50;;;;;;;4.32;1.40;;;;;;;;;;4676400;30;128400;-81
2023/07/18 02:18:59;;;;;;;;;;;;;;;;;;;;;
2023/07/18 02:22:18;;;;;;;;;;;;;;;;;;;;;
2023/07/18 02:30:05;;;;;;;;;;;;;;;;;;;;;
2023/07/18 02:33:46;;;;;;;;;;;;;;;;;;;;;
2023/07/18 02:37:39;;;;;;;6.03;1.60;;;;;;;;;;4803331;29;98990;-81
2023/07/18 02:44:47;;;;;;;6.05;1.60;;;;;;;;;;4735484;29;100305;-81
2023/07/18 02:52:10;;;;;;;5.30;1.65;;;;;;;;;;4790770;29;99357;-81
2023/07/18 02:55:06;;;;;;;6.95;1.70;;;;;;;;;;4811096;29;101329;-81
2023/07/18 02:59:23;;;;;;;6.30;1.48;;;;;;;;;;4765074;29;99182;-81
2023/07/18 03:07:28;;;;;;;4.75;1.50;;;;;;;;;;4752052;29;98707;-82
2023/07/18 03:11:20;;;;;;;6.82;1.67;;;;;;;;;;4696363;29;98537;-82
2023/07/18 03:30:04;;;;;;;5.47;1.52;;;;;;;;;;4828849;29;98317;-82
2023/07/18 03:33:58;;;;;;;;;;;;;;;;;;;;;
2023/07/18 03:38:21;;;;;;;5.22;1.45;;;;;;;;;;4931934;28;99504;-82
2023/07/18 04:17:16;;;;;;;;;;;;;;;;;;;;;
2023/07/18 04:28:34;;;;;;;7.43;1.50;;;;;;;;;;4955634;28;98479;-82
2023/07/18 04:40:25;;;;;;;5.53;1.75;;;;;;;;;;4959058;28;99427;-82
2023/07/18 04:43:34;;;;;;;6.97;1.88;;;;;;;;;;4939915;28;97875;-82
2023/07/18 04:46:56;;;;;;;6.93;1.80;;;;;;;;;;4962503;28;98139;-81
2023/07/18 04:50:42;;;;;;;6.32;1.67;;;;;;;;;;4893013;28;98498;-82
2023/07/18 04:57:31;;;;;;;;;;;;;;;;;;;;;
2023/07/18 05:01:01;;;;;;;6.82;1.90;;;;;;;;;;4942317;28;98637;-82
2023/07/18 05:04:29;;;;;;;5.93;1.95;;;;;;;;;;4957896;28;98800;-82
2023/07/18 05:08:05;;;;;;;;;;;;;;;;;;;;;
2023/07/18 05:19:10;;;;;;;6.65;1.95;;;;;;;;;;4878694;28;100678;-82
2023/07/18 05:21:47;;;;;;;7.22;2.00;;;;;;;;;;4887196;28;98387;-82
2023/07/18 05:24:42;;;;;;;5.68;1.63;;;;;;;;;;4897702;28;99368;-82
2023/07/18 05:31:26;;;;;;;5.60;1.98;;;;;;;;;;4916562;28;128822;-83
2023/07/18 05:34:35;;;;;;;8.57;2.30;;;;;;;;;;4946413;28;98655;-82
2023/07/18 05:37:37;;;;;;;6.63;1.80;;;;;;;;;;4952624;28;100672;-82
2023/07/18 05:44:55;;;;;;;4.78;1.90;;;;;;;;;;4857096;28;100920;-82
2023/07/18 05:48:05;;;;;;;9.73;2.42;;;;;;;;;;4915546;28;98378;-82
2023/07/18 05:51:49;;;;;;;5.65;2.13;;;;;;;;;;4933226;28;98451;-82
2023/07/18 05:54:23;;;;;;;4.93;1.70;;;;;;;;;;4932007;28;98582;-81
2023/07/18 05:58:19;;;;;;;;;;;;;;;;;;;;;
2023/07/18 06:01:38;;;;;;;5.15;1.60;;;;;;;;;;4889626;28;99810;-82
2023/07/18 06:04:41;;;;;;;5.75;1.95;;;;;;;;;;4880874;28;98388;-82
2023/07/18 06:08:32;;;;;;;;;;;;;;;;;;;;;
2023/07/18 06:11:33;;;;;;;8.02;2.20;;;;;;;;;;4759469;29;127692;-82
2023/07/18 06:14:36;;;;;;;9.48;2.67;;;;;;;;;;4754734;29;99458;-82
2023/07/18 06:18:33;;;;;;;9.07;2.50;;;;;;;;;;4735179;29;100414;-81
2023/07/18 06:21:07;;;;;;;5.20;1.80;;;;;;;;;;4694544;29;98923;-82
2023/07/18 06:24:16;;;;;;;7.68;2.25;;;;;;;;;;4734041;29;97662;-82
2023/07/18 06:27:10;;;;;;;6.20;2.03;;;;;;;;;;4825171;29;100687;-81
2023/07/18 06:30:32;;;;;;;8.93;2.30;;;;;;;;;;4845356;29;116341;-81
2023/07/18 06:37:48;;;;;;;9.00;2.65;;;;;;;;;;4817139;29;99232;-80
2023/07/18 06:41:17;;;;;;;11.75;2.78;;;;;;;;;;4750557;29;98974;-82
2023/07/18 06:44:41;;;;;;;8.13;2.17;;;;;;;;;;4775222;29;98295;-82
2023/07/18 06:48:03;;;;;;;6.13;1.95;;;;;;;;;;4786706;29;98676;-81
2023/07/18 06:51:21;;;;;;;7.45;1.98;;;;;;;;;;4855518;28;100067;-82
2023/07/18 06:57:56;;;;;;;7.75;1.73;;;;;;;;;;4951103;28;100017;-83
2023/07/18 07:00:55;;;;;;;7.75;1.63;;;;;;;;;;4918857;28;99161;-82
2023/07/18 07:03:32;;;;;;;7.82;2.22;;;;;;;;;;4947472;28;130838;-82
2023/07/18 07:06:43;;;;;;;;;;;;;;;;;;;;;
2023/07/18 07:09:31;;;;;;;8.52;2.00;;;;;;;;;;4944548;28;100599;-81
2023/07/18 07:16:14;;;;;;;7.35;2.22;;;;;;;;;;4944304;28;98399;-81
2023/07/18 07:19:41;;;;;;;8.10;2.15;;;;;;;;;;4943833;28;98327;-82
2023/07/18 07:22:48;;;;;;;;;;;;;;;;;;;;;
2023/07/18 07:25:27;;;;;;;7.18;1.88;;;;;;;;;;4952292;28;99240;-82
2023/07/18 07:28:05;;;;;;;8.35;2.05;;;;;;;;;;4957310;28;98932;-81
2023/07/18 07:31:14;;;;;;;7.60;2.20;;;;;;;;;;4968843;28;98628;-83
2023/07/18 07:34:04;;;;;;;9.30;2.22;;;;;;;;;;4955457;28;98240;-83
2023/07/18 07:36:49;;;;;;;9.70;2.05;;;;;;;;;;4959311;28;99827;-82
2023/07/18 07:39:27;;;;;;;7.18;1.98;;;;;;;;;;4961790;28;98131;-82
2023/07/18 07:42:12;;;;;;;6.38;2.20;;;;;;;;;;4960297;28;99768;-82
2023/07/18 07:45:51;;;;;;;6.15;1.88;;;;;;;;;;4935411;28;99956;-81
2023/07/18 07:49:16;;;;;;;;;;;;;;;;;;;;;
2023/07/18 07:52:50;;;;;;;6.88;2.03;;;;;;;;;;4957464;28;98402;-82
2023/07/18 07:55:41;;;;;;;8.10;2.20;;;;;;;;;;4947848;28;98525;-81
2023/07/18 08:02:19;;;;;;;7.78;2.17;;;;;;;;;;4945917;28;99177;-80
2023/07/18 08:14:02;;;;;;;6.85;1.58;;;;;;;;;;4834658;28;98869;-82
2023/07/18 08:17:36;;;;;;;5.25;1.70;;;;;;;;;;4784425;29;98689;-81
2023/07/18 08:20:36;;;;;;;8.50;1.88;;;;;;;;;;4802104;29;99134;-82
2023/07/18 08:23:30;;;;;;;8.82;2.10;;;;;;;;;;4807195;29;98447;-82
2023/07/18 08:27:16;;;;;;;5.78;1.80;;;;;;;;;;4803912;29;129684;-81
2023/07/18 08:30:47;;;;;;;10.07;2.20;;;;;;;;;;4812339;29;102077;-83
2023/07/18 08:34:11;;;;;;;8.23;1.98;;;;;;;;;;4798807;29;97973;-81
2023/07/18 08:36:55;;;;;;;8.38;2.15;;;;;;;;;;4815000;29;98739;-77
2023/07/18 08:39:22;;;;;;;9.63;2.33;;;;;;;;;;4814082;29;99180;-78
2023/07/18 08:41:49;;;;;;;6.22;2.00;;;;;;;;;;4833399;29;99087;-78
2023/07/18 08:44:16;;;;;;;7.25;2.05;;;;;;;;;;4867683;28;99091;-77
2023/07/18 08:46:43;;;;;;;;;;;;;;;;;;4865274;28;98534;-77
2023/07/18 08:49:15;;;;;;;6.95;1.80;;;;;;;;;;4862188;29;98318;-77
2023/07/18 08:51:42;;;;;;;8.98;2.28;;;;;;;;;;4861048;29;98810;-77
2023/07/18 08:54:09;;;;;;;8.65;2.17;;;;;;;;;;4913098;28;98313;-77
2023/07/18 08:56:36;;;;;;;7.32;2.15;;;;;;;;;;4937646;28;98727;-77
2023/07/18 08:59:03;;;;;;;10.32;2.40;;;;;;;;;;4951362;28;100643;-77
2023/07/18 09:01:29;;;;;;;6.75;1.90;;;;;;;;;;4946184;28;98257;-77
2023/07/18 09:03:56;;;;;;;8.90;1.90;;;;;;;;;;4942285;28;101127;-77
2023/07/18 09:06:23;;;;;;;6.07;1.70;;;;;;;;;;4958520;28;99363;-76
2023/07/18 09:08:50;;;;;;;8.02;1.92;;;;;;;;;;4958516;28;99139;-78
2023/07/18 09:11:18;;;;;;;10.18;2.40;;;;;;;;;;4941405;28;99163;-77
2023/07/18 09:13:45;;;;;;;9.38;2.10;;;;;;;;;;4941805;28;98203;-78
2023/07/18 09:16:20;;;;;;;7.85;2.42;;;;;;;;;;4969320;28;98384;-78
2023/07/18 09:18:48;;;;;;;7.53;2.30;;;;;;;;;;4955390;28;102122;-78
2023/07/18 09:21:16;;;;;;;7.75;2.13;;;;;;;;;;4927314;28;98147;-78
2023/07/18 09:23:44;;;;;;;9.25;2.60;;;;;;;;;;4955280;28;98211;-78
2023/07/18 09:26:12;;;;;;;6.93;1.90;;;;;;;;;;4961822;28;99209;-77
2023/07/18 09:28:39;;;;;;;7.00;2.00;;;;;;;;;;4958090;28;98511;-78
2023/07/18 09:31:16;;;;;;;8.55;2.20;;;;;;;;;;4957645;28;100038;-77
2023/07/18 09:33:45;;;;;;;8.10;2.35;;;;;;;;;;4933681;28;98482;-77
2023/07/18 09:36:18;;;;;;;7.07;2.00;;;;;;;;;;4958900;28;98712;-77
2023/07/18 09:38:49;;;;;;;11.05;2.08;;;;;;;;;;4958104;28;99608;-76
2023/07/18 09:41:16;;;;;;;8.60;2.25;;;;;;;;;;4940908;28;98327;-77
2023/07/18 09:43:43;;;;;;;;;;;;;;;;;;4958688;28;98303;-76
2023/07/18 09:46:11;;;;;;;8.02;1.95;;;;;;;;;;4956167;28;99956;-76
2023/07/18 09:48:38;;;;;;;8.05;2.20;;;;;;;;;;4954495;28;97441;-78
2023/07/18 09:51:09;;;;;;;8.18;1.92;;;;;;;;;;4938188;28;99858;-77
2023/07/18 09:53:36;;;;;;;8.75;2.08;;;;;;;;;;4940761;28;98550;-77
2023/07/18 09:56:02;;;;;;;;;;;;;;;;;;4957979;28;99003;-78
2023/07/18 09:58:30;;;;;;;7.55;2.03;;;;;;;;;;4957779;28;120597;-77
2023/07/18 10:00:57;;;;;;;11.02;2.38;;;;;;;;;;4938373;28;99912;-77
2023/07/18 10:03:24;;;;;;;9.75;2.53;;;;;;;;;;4951270;28;99818;-76
2023/07/18 10:05:51;;;;;;;8.40;2.10;;;;;;;;;;4929164;28;101755;-76
2023/07/18 10:08:19;;;;;;;9.35;2.00;;;;;;;;;;4956984;28;98458;-77
2023/07/18 10:10:58;;;;;;;7.68;2.10;;;;;;;;;;4942415;28;98687;-77
2023/07/18 10:13:25;;;;;;;;;;;;;;;;;;4941140;28;97783;-78
2023/07/18 10:16:10;;;;;;;6.68;1.67;;;;;;;;;;4957893;28;121685;-80
2023/07/18 10:19:03;;;;;;;6.45;1.90;;;;;;;;;;4966529;28;98844;-77
2023/07/18 10:21:37;;;;;;;9.68;1.98;;;;;;;;;;4956266;28;99090;-76
2023/07/18 10:24:19;;;;;;;5.13;1.70;;;;;;;;;;4957636;28;99726;-76
2023/07/18 10:26:48;;;;;;;10.40;1.83;;;;;;;;;;4947442;28;99219;-78
2023/07/18 10:29:14;;;;;;;9.45;1.92;;;;;;;;;;4939978;28;99220;-77
2023/07/18 10:31:41;;;;;;;6.22;1.80;;;;;;;;;;4935189;28;100705;-77
2023/07/18 10:34:09;;;;;;;6.90;1.55;;;;;;;;;;4953729;28;98259;-77
2023/07/18 10:36:37;;;;;;;5.65;1.33;;;;;;;;;;4957531;28;98723;-76
2023/07/18 10:39:12;;;;;;;3.75;1.13;;;;;;;;;;4955572;28;98493;-76
2023/07/18 10:41:43;;;;;;;18.42;3.28;;;;;;;;;;4958162;28;98030;-76
2023/07/18 10:44:12;;;;;;;6.97;1.67;;;;;;;;;;4953356;28;102771;-75
2023/07/18 10:46:41;;;;;;;4.88;1.55;;;;;;;;;;4947588;28;99592;-76
2023/07/18 10:49:08;;;;;;;5.93;1.52;;;;;;;;;;4954031;28;98865;-76
2023/07/18 10:51:35;;;;;;;6.55;1.80;;;;;;;;;;4930513;28;101161;-75
2023/07/18 10:54:02;;;;;;;6.18;1.70;;;;;;;;;;4958294;28;99145;-75
2023/07/18 10:56:28;;;;;;;;;;;;;;;;;;4951086;28;98360;-75
2023/07/18 10:58:55;;;;;;;7.65;2.10;;;;;;;;;;4967283;28;99433;-76
2023/07/18 11:01:25;;;;;;;6.90;2.30;;;;;;;;;;4959277;28;98570;-76
2023/07/18 11:03:52;;;;;;;9.40;2.10;;;;;;;;;;4942920;28;98464;-76
2023/07/18 11:06:22;;;;;;;7.70;1.92;;;;;;;;;;4957481;28;99922;-79
2023/07/18 11:08:49;;;;;;;7.03;1.70;;;;;;;;;;4947977;28;98375;-76
2023/07/18 11:11:17;;;;;;;5.68;1.48;;;;;;;;;;4959394;28;99211;-76
2023/07/18 11:13:44;;;;;;;8.50;1.65;;;;;;;;;;4959350;28;98887;-75
2023/07/18 11:16:13;;;;;;;8.77;1.70;;;;;;;;;;4964184;28;98183;-76
2023/07/18 11:18:46;;;;;;;6.50;1.67;;;;;;;;;;4959819;28;98791;-76
2023/07/18 11:21:13;;;;;;;7.80;1.75;;;;;;;;;;4960972;28;98358;-76
2023/07/18 11:23:40;;;;;;;6.50;1.58;;;;;;;;;;4960357;28;98899;-77
2023/07/18 11:26:14;;;;;;;6.03;1.50;;;;;;;;;;4942683;28;101572;-77
2023/07/18 11:28:41;;;;;;;6.40;1.58;;;;;;;;;;4960840;28;97536;-77
2023/07/18 11:31:20;;;;;;;7.00;1.70;;;;;;;;;;4961205;28;98498;-79
2023/07/18 11:34:05;;;;;;;6.90;1.90;;;;;;;;;;4957494;28;98691;-77
2023/07/18 11:36:33;;;;;;;8.60;2.05;;;;;;;;;;4942279;28;99173;-76
2023/07/18 11:39:06;;;;;;;6.15;1.42;;;;;;;;;;4927371;28;99921;-76
2023/07/18 11:41:33;;;;;;;7.07;2.00;;;;;;;;;;4948390;28;98087;-77
2023/07/18 11:44:01;;;;;;;4.80;1.50;;;;;;;;;;4968631;28;98325;-77
2023/07/18 11:46:35;;;;;;;4.95;1.50;;;;;;;;;;4946195;28;99123;-75
2023/07/18 11:49:01;;;;;;;;;;;;;;;;;;4955344;28;98178;-77
2023/07/18 11:51:28;;;;;;;5.22;1.73;;;;;;;;;;4961010;28;98021;-77
2023/07/18 11:53:54;;;;;;;7.13;1.83;;;;;;;;;;4940807;28;98876;-77
2023/07/18 11:56:21;;;;;;;5.03;1.75;;;;;;;;;;4937026;28;99345;-78
2023/07/18 11:58:50;;;;;;;4.22;1.50;;;;;;;;;;4945916;28;98582;-77
2023/07/18 12:01:17;;;;;;;7.70;1.70;;;;;;;;;;4942216;28;99875;-76
2023/07/18 12:03:44;;;;;;;5.85;1.70;;;;;;;;;;4952794;28;99124;-78
2023/07/18 12:06:11;;;;;;;6.18;1.70;;;;;;;;;;4958980;28;98875;-77
2023/07/18 12:08:38;;;;;;;4.57;1.63;;;;;;;;;;4941249;28;98758;-78
2023/07/18 12:11:04;;;;;;;6.20;1.73;;;;;;;;;;4946174;28;101227;-78
2023/07/18 12:13:38;;;;;;;7.05;1.70;;;;;;;;;;4956425;28;98623;-78
2023/07/18 12:16:05;;;;;;;5.57;1.40;;;;;;;;;;4953866;28;98518;-78
2023/07/18 12:18:31;;;;;;;6.82;1.67;;;;;;;;;;4954356;28;99331;-79
2023/07/18 12:20:58;;;;;;;4.28;1.65;;;;;;;;;;4953190;28;98924;-78
2023/07/18 12:23:25;;;;;;;3.80;1.33;;;;;;;;;;4932391;28;98197;-78
2023/07/18 12:25:51;;;;;;;6.53;1.50;;;;;;;;;;4946566;28;99643;-78
2023/07/18 12:28:18;;;;;;;6.97;1.65;;;;;;;;;;4956337;28;98765;-79
2023/07/18 12:30:45;;;;;;;6.72;2.08;;;;;;;;;;4958901;28;98375;-79
2023/07/18 12:33:12;;;;;;;7.50;1.73;;;;;;;;;;4955061;28;101006;-79
2023/07/18 12:35:39;;;;;;;5.38;1.75;;;;;;;;;;4946179;28;99896;-78
2023/07/18 12:38:06;;;;;;;6.78;1.83;;;;;;;;;;4959444;28;98953;-77
2023/07/18 12:40:33;;;;;;;6.43;1.75;;;;;;;;;;4938262;28;99148;-78
2023/07/18 12:42:59;;;;;;;6.38;1.90;;;;;;;;;;4953949;28;97710;-78
2023/07/18 12:45:26;;;;;;;4.68;1.58;;;;;;;;;;4958263;28;98758;-78
2023/07/18 12:47:52;;;;;;;3.92;1.50;;;;;;;;;;4932424;28;99224;-78
2023/07/18 12:50:19;;;;;;;6.65;1.73;;;;;;;;;;4939425;28;98934;-76
2023/07/18 12:52:45;;;;;;;5.18;1.48;;;;;;;;;;4940819;28;100843;-79
2023/07/18 12:55:12;;;;;;;5.97;1.77;;;;;;;;;;4925729;28;98380;-78
2023/07/18 12:57:39;;;;;;;4.80;1.77;;;;;;;;;;4948113;28;98273;-77
2023/07/18 13:00:06;;;;;;;4.72;1.52;;;;;;;;;;4958895;28;99047;-75
2023/07/18 13:02:32;;;;;;;6.00;1.60;;;;;;;;;;4959309;28;98846;-77
2023/07/18 13:05:01;;;;;;;7.72;1.85;;;;;;;;;;4961580;28;98804;-76
2023/07/18 13:07:27;;;;;;;8.38;1.48;;;;;;;;;;4937685;28;97581;-77
2023/07/18 13:09:54;;;;;;;5.82;1.50;;;;;;;;;;4956141;28;98638;-79
2023/07/18 13:12:21;;;;;;;3.08;1.27;;;;;;;;;;4944331;28;99190;-80
2023/07/18 13:14:47;;;;;;;4.47;1.35;;;;;;;;;;4957363;28;99195;-79
2023/07/18 13:17:16;;;;;;;4.18;1.55;;;;;;;;;;4929362;28;102020;-80
2023/07/18 13:19:43;;;;;;;5.53;1.45;;;;;;;;;;4946117;28;99774;-78
2023/07/18 13:22:09;;;;;;;4.28;1.30;;;;;;;;;;4946011;28;98449;-79
2023/07/18 13:24:39;;;;;;;3.53;1.00;;;;;;;;;;4949807;28;98601;-78
2023/07/18 13:27:06;;;;;;;5.05;1.23;;;;;;;;;;4963510;28;98919;-79
2023/07/18 13:29:32;;;;;;;3.45;1.23;;;;;;;;;;4959018;28;98219;-78
2023/07/18 13:31:59;;;;;;;6.38;1.40;;;;;;;;;;4938111;28;101109;-78
2023/07/18 13:34:26;;;;;;;2.78;1.10;;;;;;;;;;4951666;28;98226;-79
2023/07/18 13:36:53;;;;;;;3.63;1.20;;;;;;;;;;4939290;28;98405;-77
2023/07/18 13:39:20;;;;;;;5.43;1.30;;;;;;;;;;4938482;28;100661;-78
2023/07/18 13:41:47;;;;;;;5.38;1.13;;;;;;;;;;4943838;28;99270;-80
2023/07/18 13:44:14;;;;;;;3.50;1.10;;;;;;;;;;4936565;28;101111;-81
2023/07/18 13:46:40;;;;;;;3.42;1.13;;;;;;;;;;4941291;28;99029;-78
2023/07/18 13:49:07;;;;;;;3.72;1.20;;;;;;;;;;4961982;28;98751;-78
2023/07/18 13:51:34;;;;;;;2.90;1.10;;;;;;;;;;4958628;28;99077;-79
2023/07/18 13:54:00;;;;;;;3.78;1.20;;;;;;;;;;4940447;28;98398;-78
2023/07/18 13:56:27;;;;;;;4.13;1.38;;;;;;;;;;4967627;28;98433;-78
2023/07/18 13:58:56;;;;;;;2.80;1.17;;;;;;;;;;4940299;28;101096;-78
2023/07/18 14:01:23;;;;;;;4.47;1.20;;;;;;;;;;4941060;28;98673;-77
2023/07/18 14:03:50;;;;;;;4.68;1.23;;;;;;;;;;4939881;28;101109;-78
2023/07/18 14:06:16;;;;;;;;;;;;;;;;;;4958596;28;99251;-79
2023/07/18 14:08:43;;;;;;;4.28;1.25;;;;;;;;;;4942110;28;98685;-81
2023/07/18 14:11:10;;;;;;;4.25;1.30;;;;;;;;;;4943613;28;102178;-79
2023/07/18 14:13:41;;;;;;;8.02;1.60;;;;;;;;;;4951983;28;98526;-77
2023/07/18 14:16:08;;;;;;;5.72;1.40;;;;;;;;;;4949247;28;99347;-78
2023/07/18 14:18:37;;;;;;;3.60;1.20;;;;;;;;;;4946827;28;101700;-78
2023/07/18 14:21:04;;;;;;;5.65;1.50;;;;;;;;;;4941499;28;97462;-80
2023/07/18 14:23:30;;;;;;;3.42;1.20;;;;;;;;;;4940693;28;98372;-79
2023/07/18 14:25:57;;;;;;;4.65;1.40;;;;;;;;;;4951970;28;98872;-79
2023/07/18 14:28:24;;;;;;;4.50;1.50;;;;;;;;;;4940206;28;98954;-80
2023/07/18 14:30:50;;;;;;;2.70;1.05;;;;;;;;;;4960865;28;99429;-79
2023/07/18 14:33:17;;;;;;;3.28;1.30;;;;;;;;;;4949253;28;98206;-79
2023/07/18 14:35:44;;;;;;;5.75;1.48;;;;;;;;;;4940356;28;100827;-80
2023/07/18 14:38:11;;;;;;;4.15;1.40;;;;;;;;;;4956194;28;99738;-80
2023/07/18 14:40:37;;;;;;;3.78;1.30;;;;;;;;;;4947092;28;98198;-80
2023/07/18 14:43:08;;;;;;;3.65;1.50;;;;;;;;;;4935601;28;99211;-80
2023/07/18 14:45:36;;;;;;;4.68;1.67;;;;;;;;;;4957982;28;97996;-81
2023/07/18 14:48:02;;;;;;;;;;;;;;;;;;4925177;28;98206;-80
2023/07/18 14:50:32;;;;;;;4.57;1.42;;;;;;;;;;4954984;28;98302;-82
2023/07/18 14:52:59;;;;;;;4.20;1.45;;;;;;;;;;4944863;28;102592;-80
2023/07/18 14:55:26;;;;;;;4.90;1.40;;;;;;;;;;4946190;28;101351;-80
2023/07/18 14:57:53;;;;;;;4.00;1.40;;;;;;;;;;4948148;28;101189;-86
2023/07/18 15:00:19;;;;;;;4.82;1.52;;;;;;;;;;4959995;28;98389;-82
2023/07/18 15:02:46;;;;;;;3.85;1.52;;;;;;;;;;4937862;28;98639;-82
2023/07/18 15:05:14;;;;;;;4.50;1.60;;;;;;;;;;4958387;28;99092;-83
2023/07/18 15:07:41;;;;;;;6.05;1.55;;;;;;;;;;4953886;28;98225;-81
2023/07/18 15:10:08;;;;;;;3.90;1.23;;;;;;;;;;4942750;28;98472;-81
2023/07/18 15:12:38;;;;;;;4.53;1.40;;;;;;;;;;4946191;28;101268;-81
2023/07/18 15:15:06;;;;;;;5.00;1.77;;;;;;;;;;4939315;28;98432;-82
2023/07/18 15:17:40;;;;;;;4.22;1.67;;;;;;;;;;4954651;28;99930;-82
2023/07/18 15:20:11;;;;;;;4.60;1.48;;;;;;;;;;4945921;28;98530;-81
2023/07/18 15:22:38;;;;;;;4.90;1.50;;;;;;;;;;4941577;28;100802;-85
2023/07/18 15:25:05;;;;;;;4.15;1.50;;;;;;;;;;4940610;28;101073;-85
2023/07/18 15:27:34;;;;;;;4.03;1.52;;;;;;;;;;4969011;28;98473;-85
2023/07/18 15:30:01;;;;;;;5.63;1.98;;;;;;;;;;4956984;28;99301;-83
2023/07/18 15:32:28;;;;;;;5.55;1.80;;;;;;;;;;4938714;28;98766;-85
2023/07/18 15:34:54;;;;;;;3.92;1.80;;;;;;;;;;4947855;28;97815;-85
2023/07/18 15:37:21;;;;;;;4.80;1.60;;;;;;;;;;4942377;28;98599;-84
2023/07/18 15:39:48;;;;;;;4.35;1.80;;;;;;;;;;4940309;28;98768;-83
2023/07/18 15:42:18;;;;;;;4.70;1.70;;;;;;;;;;4926261;28;101354;-83
2023/07/18 15:44:45;;;;;;;5.50;2.10;;;;;;;;;;4938083;28;101687;-83
2023/07/18 15:47:12;;;;;;;5.47;1.80;;;;;;;;;;4958933;28;98647;-86
2023/07/18 15:49:38;;;;;;;5.10;1.60;;;;;;;;;;4941102;28;101222;-84
2023/07/18 15:52:06;;;;;;;5.47;2.00;;;;;;;;;;4958052;28;98946;-83
2023/07/18 15:54:32;;;;;;;5.03;1.80;;;;;;;;;;4943742;28;98433;-84
2023/07/18 15:56:59;;;;;;;6.20;1.90;;;;;;;;;;4954061;28;100707;-84
2023/07/18 15:59:26;;;;;;;5.00;1.75;;;;;;;;;;4946004;28;100698;-81
2023/07/18 16:01:53;;;;;;;6.60;2.08;;;;;;;;;;4961714;28;98080;-83
2023/07/18 16:04:20;;;;;;;3.63;1.88;;;;;;;;;;4948690;28;99627;-84
2023/07/18 16:06:47;;;;;;;5.70;1.90;;;;;;;;;;4953542;28;99271;-85
2023/07/18 16:09:14;;;;;;;4.47;1.75;;;;;;;;;;4925603;28;101568;-83
2023/07/18 16:11:41;;;;;;;6.15;2.10;;;;;;;;;;4960710;28;98760;-83
2023/07/18 16:14:07;;;;;;;5.45;2.08;;;;;;;;;;4961220;28;98181;-84
2023/07/18 16:16:37;;;;;;;5.65;2.20;;;;;;;;;;4961459;28;98806;-83
2023/07/18 16:19:06;;;;;;;8.45;2.10;;;;;;;;;;4922375;28;101537;-83
2023/07/18 16:21:34;;;;;;;4.95;2.10;;;;;;;;;;4946059;28;98462;-86
2023/07/18 16:24:01;;;;;;;6.88;2.10;;;;;;;;;;4950036;28;98407;-84
2023/07/18 16:26:31;;;;;;;4.53;1.65;;;;;;;;;;4959396;28;98180;-84
2023/07/18 16:29:00;;;;;;;4.38;1.70;;;;;;;;;;4938517;28;100829;-84
2023/07/18 16:31:27;;;;;;;4.57;1.70;;;;;;;;;;4933227;28;102069;-83
2023/07/18 16:33:54;;;;;;;5.05;1.80;;;;;;;;;;4961570;28;98800;-82
2023/07/18 16:36:21;;;;;;;6.15;1.80;;;;;;;;;;4960846;28;98918;-82
2023/07/18 16:38:47;;;;;;;3.95;1.30;;;;;;;;;;4958338;28;98765;-83
2023/07/18 16:41:14;;;;;;;5.22;1.80;;;;;;;;;;4972664;28;98530;-83
2023/07/18 16:43:41;;;;;;;8.18;1.70;;;;;;;;;;4940914;28;101164;-84
2023/07/18 16:46:07;;;;;;;4.28;1.52;;;;;;;;;;4941514;28;98496;-84
2023/07/18 16:48:34;;;;;;;3.80;1.55;;;;;;;;;;4941913;28;98783;-83
2023/07/18 16:51:00;;;;;;;5.35;1.60;;;;;;;;;;4951327;28;98832;-84
2023/07/18 16:53:27;;;;;;;6.18;1.83;;;;;;;;;;4941830;28;98615;-84
2023/07/18 16:55:54;;;;;;;5.88;1.70;;;;;;;;;;4943663;28;101380;-84
2023/07/18 16:58:20;;;;;;;4.97;1.75;;;;;;;;;;4957543;28;101644;-84
2023/07/18 17:00:47;;;;;;;6.35;1.90;;;;;;;;;;4941832;28;98387;-83
2023/07/18 17:03:14;;;;;;;6.35;1.80;;;;;;;;;;4944572;28;100874;-82
2023/07/18 17:05:41;;;;;;;4.72;1.60;;;;;;;;;;4941537;28;98745;-82
2023/07/18 17:08:08;;;;;;;5.05;1.70;;;;;;;;;;4946813;28;100464;-80
2023/07/18 17:10:34;;;;;;;4.95;1.70;;;;;;;;;;4953242;28;98922;-79
2023/07/18 17:13:01;;;;;;;4.18;1.88;;;;;;;;;;4959705;28;97468;-79
2023/07/18 17:15:27;;;;;;;5.13;1.70;;;;;;;;;;4941759;28;100444;-80
2023/07/18 17:17:54;;;;;;;5.60;1.70;;;;;;;;;;4957399;28;98873;-80
2023/07/18 17:20:20;;;;;;;5.80;2.00;;;;;;;;;;4967392;28;98876;-80
2023/07/18 17:22:47;;;;;;;4.15;1.63;;;;;;;;;;4941349;28;101630;-80
2023/07/18 17:25:14;;;;;;;9.25;1.95;;;;;;;;;;4970809;28;98841;-80
2023/07/18 17:27:40;;;;;;;4.57;1.70;;;;;;;;;;4959861;28;98872;-80
2023/07/18 17:30:07;;;;;;;5.30;1.67;;;;;;;;;;4940817;28;99305;-79
2023/07/18 17:32:34;;;;;;;4.80;1.58;;;;;;;;;;4958604;28;98574;-80
2023/07/18 17:35:01;;;;;;;5.65;1.60;;;;;;;;;;4944347;28;98542;-78
2023/07/18 17:37:27;;;;;;;5.00;1.80;;;;;;;;;;4939441;28;98445;-79
2023/07/18 17:39:54;;;;;;;5.63;1.65;;;;;;;;;;4951545;28;98095;-79
2023/07/18 17:42:21;;;;;;;5.70;1.40;;;;;;;;;;4948576;28;98909;-78
2023/07/18 17:44:50;;;;;;;4.45;1.70;;;;;;;;;;4957573;28;100567;-79
2023/07/18 17:47:17;;;;;;;5.18;1.70;;;;;;;;;;4944052;28;98568;-79
2023/07/18 17:49:43;;;;;;;4.38;1.50;;;;;;;;;;4941918;28;101165;-79
2023/07/18 17:52:10;;;;;;;2.95;1.45;;;;;;;;;;4958903;28;99710;-79
2023/07/18 17:54:36;;;;;;;8.25;1.77;;;;;;;;;;4958627;28;98571;-79
2023/07/18 17:57:03;;;;;;;7.22;1.60;;;;;;;;;;4950623;28;98842;-81
2023/07/18 17:59:29;;;;;;;5.10;1.60;;;;;;;;;;4958478;28;98234;-78
2023/07/18 18:01:56;;;;;;;6.85;1.60;;;;;;;;;;4959721;28;98655;-80
2023/07/18 18:04:23;;;;;;;6.93;1.75;;;;;;;;;;4957858;28;98748;-79
2023/07/18 18:06:49;;;;;;;6.40;1.58;;;;;;;;;;4940436;28;98182;-79
2023/07/18 18:09:16;;;;;;;4.93;1.70;;;;;;;;;;4960262;28;99286;-79
2023/07/18 18:11:43;;;;;;;6.65;1.63;;;;;;;;;;4968251;28;98586;-80
2023/07/18 18:14:09;;;;;;;4.50;1.50;;;;;;;;;;4958088;28;98752;-79
2023/07/18 18:16:36;;;;;;;5.32;1.60;;;;;;;;;;4949385;28;101672;-80
2023/07/18 18:19:02;;;;;;;5.38;1.60;;;;;;;;;;4938488;28;98102;-79
2023/07/18 18:21:29;;;;;;;5.07;1.67;;;;;;;;;;4938860;28;98448;-79
2023/07/18 18:23:56;;;;;;;6.65;1.70;;;;;;;;;;4920439;28;99468;-79
2023/07/18 18:26:23;;;;;;;3.88;1.50;;;;;;;;;;4942245;28;97802;-84
2023/07/18 18:28:50;;;;;;;6.97;1.67;;;;;;;;;;4940136;28;98061;-84
2023/07/18 18:31:16;;;;;;;6.88;1.77;;;;;;;;;;4943112;28;101603;-81
2023/07/18 18:33:43;;;;;;;7.45;1.70;;;;;;;;;;4955188;28;98884;-76
2023/07/18 18:36:10;;;;;;;4.05;1.48;;;;;;;;;;4958071;28;98959;-78
2023/07/18 18:38:37;;;;;;;5.43;1.42;;;;;;;;;;4957825;28;98305;-79
2023/07/18 18:41:04;;;;;;;3.92;1.52;;;;;;;;;;4944608;28;100478;-80
2023/07/18 18:43:31;;;;;;;4.45;1.40;;;;;;;;;;4945640;28;99690;-81
2023/07/18 18:45:58;;;;;;;5.22;1.52;;;;;;;;;;4971605;28;98168;-81
2023/07/18 18:48:25;;;;;;;6.20;1.60;;;;;;;;;;4940252;28;100948;-81
2023/07/18 18:50:51;;;;;;;4.95;1.40;;;;;;;;;;4914354;28;101150;-83
2023/07/18 18:53:28;;;;;;;6.40;1.50;;;;;;;;;;4940097;28;100233;-83
2023/07/18 18:55:57;;;;;;;8.75;1.52;;;;;;;;;;4958011;28;98739;-85
2023/07/18 18:58:24;;;;;;;6.30;1.40;;;;;;;;;;4939920;28;99115;-84
2023/07/18 19:00:51;;;;;;;4.75;1.25;;;;;;;;;;4945538;28;99390;-84
2023/07/18 19:03:17;;;;;;;4.47;1.40;;;;;;;;;;4954933;28;100326;-83
2023/07/18 19:05:46;;;;;;;3.60;1.20;;;;;;;;;;4956250;28;98305;-83
2023/07/18 19:08:13;;;;;;;4.90;1.17;;;;;;;;;;4939393;28;100251;-85
2023/07/18 19:10:40;;;;;;;4.35;1.30;;;;;;;;;;4943573;28;98626;-85
2023/07/18 19:13:19;;;;;;;5.75;1.25;;;;;;;;;;4971717;28;98721;-85
2023/07/18 19:15:46;;;;;;;4.72;1.50;;;;;;;;;;4945683;28;100420;-85
2023/07/18 19:18:12;;;;;;;4.72;1.48;;;;;;;;;;4944453;28;98537;-82
2023/07/18 19:20:39;;;;;;;4.22;1.58;;;;;;;;;;4940227;28;101543;-83
2023/07/18 19:23:06;;;;;;;4.65;1.30;;;;;;;;;;4957666;28;99347;-86
2023/07/18 19:25:33;;;;;;;6.93;1.50;;;;;;;;;;4944628;28;98522;-86
2023/07/18 19:28:00;;;;;;;4.78;1.35;;;;;;;;;;4935316;28;98785;-84
2023/07/18 19:30:27;;;;;;;3.70;1.45;;;;;;;;;;4922969;28;101698;-83
2023/07/18 19:32:54;;;;;;;5.18;1.50;;;;;;;;;;4943747;28;99176;-84
2023/07/18 19:35:22;;;;;;;8.02;1.60;;;;;;;;;;4946315;28;100706;-83
2023/07/18 19:37:49;;;;;;;5.25;1.45;;;;;;;;;;4943867;28;98646;-83
2023/07/18 19:40:16;;;;;;;5.30;1.60;;;;;;;;;;4957847;28;98418;-83
2023/07/18 19:42:43;;;;;;;6.28;1.65;;;;;;;;;;4953054;28;99419;-83